createdAt,value
2023-04-04T00:01:49.652Z,8.50
2023-04-04T00:04:16.074Z,8.49
2023-04-04T00:06:42.576Z,8.47
2023-04-04T00:09:08.955Z,8.43
2023-04-04T00:11:35.261Z,8.41
2023-04-04T00:14:01.644Z,8.41
2023-04-04T00:16:28.049Z,8.47
2023-04-04T00:18:54.332Z,8.48
2023-04-04T00:21:20.646Z,8.54
2023-04-04T00:23:47.092Z,8.60
2023-04-04T00:26:13.427Z,8.65
2023-04-04T00:28:39.741Z,8.68
2023-04-04T00:31:06.125Z,8.67
2023-04-04T00:35:58.854Z,8.62
2023-04-04T00:38:25.215Z,8.68
2023-04-04T00:40:51.534Z,8.78
2023-04-04T00:43:17.917Z,8.80
2023-04-04T00:45:44.345Z,8.81
2023-04-04T00:48:10.700Z,8.75
2023-04-04T00:50:37.085Z,8.70
2023-04-04T00:53:03.460Z,8.65
2023-04-04T00:55:29.774Z,8.64
2023-04-04T00:57:56.100Z,8.57
2023-04-04T01:00:22.702Z,8.62
2023-04-04T01:02:49.110Z,8.66
2023-04-04T01:05:15.388Z,8.67
2023-04-04T01:07:41.792Z,8.67
2023-04-04T01:10:08.112Z,8.70
2023-04-04T01:12:34.456Z,8.67
2023-04-04T01:15:00.813Z,8.70
2023-04-04T01:17:27.227Z,8.69
2023-04-04T01:19:53.515Z,8.72
2023-04-04T01:22:19.871Z,8.71
2023-04-04T01:24:46.195Z,8.67
2023-04-04T01:27:12.577Z,8.61
2023-04-04T01:29:38.959Z,8.59
2023-04-04T01:32:05.294Z,8.53
2023-04-04T01:34:31.604Z,8.50
2023-04-04T01:36:58.013Z,8.52
2023-04-04T01:39:24.373Z,8.59
2023-04-04T01:41:50.742Z,8.56
2023-04-04T01:44:17.088Z,8.53
2023-04-04T01:46:43.476Z,8.49
2023-04-04T01:49:11.098Z,8.50
2023-04-04T01:51:36.192Z,8.47
2023-04-04T01:54:02.545Z,8.46
2023-04-04T01:56:28.927Z,8.46
2023-04-04T01:58:55.319Z,8.51
2023-04-04T02:01:21.634Z,8.51
2023-04-04T02:03:47.967Z,8.48
2023-04-04T02:06:14.345Z,8.46
2023-04-04T02:08:40.706Z,8.43
2023-04-04T02:11:07.076Z,8.45
2023-04-04T02:13:33.441Z,8.41
2023-04-04T02:15:59.923Z,8.34
2023-04-04T02:18:26.203Z,8.33
2023-04-04T02:20:52.564Z,8.23
2023-04-04T02:23:18.905Z,8.17
2023-04-04T02:25:45.261Z,8.05
2023-04-04T02:28:11.633Z,8.09
2023-04-04T02:30:38.041Z,8.16
2023-04-04T02:33:04.355Z,8.19
2023-04-04T02:35:30.662Z,8.21
2023-04-04T02:37:57.022Z,8.24
2023-04-04T02:40:23.420Z,8.27
2023-04-04T02:42:49.762Z,8.33
2023-04-04T02:45:16.143Z,8.29
2023-04-04T02:47:42.578Z,8.28
2023-04-04T02:50:08.819Z,8.27
2023-04-04T02:52:35.187Z,8.27
2023-04-04T02:55:01.572Z,8.27
2023-04-04T02:57:27.889Z,8.26
2023-04-04T02:59:54.313Z,8.21
2023-04-04T03:02:20.710Z,8.22
2023-04-04T03:04:46.996Z,8.24
2023-04-04T03:07:13.421Z,8.21
2023-04-04T03:09:39.796Z,8.26
2023-04-04T03:12:06.161Z,8.27
2023-04-04T03:14:32.523Z,8.29
2023-04-04T03:16:58.977Z,8.35
2023-04-04T03:19:25.282Z,8.39
2023-04-04T03:21:51.634Z,8.46
2023-04-04T03:24:17.974Z,8.49
2023-04-04T03:26:44.313Z,8.54
2023-04-04T03:29:10.868Z,8.60
2023-04-04T03:31:37.242Z,8.64
2023-04-04T03:34:03.573Z,8.59
2023-04-04T03:36:29.913Z,8.60
2023-04-04T03:38:56.247Z,8.60
2023-04-04T03:41:22.570Z,8.58
2023-04-04T03:43:48.897Z,8.59
2023-04-04T03:46:15.310Z,8.64
2023-04-04T03:48:41.608Z,8.67
2023-04-04T03:51:07.972Z,8.69
2023-04-04T03:53:34.313Z,8.62
2023-04-04T03:56:00.655Z,8.59
2023-04-04T03:58:27.003Z,8.61
2023-04-04T04:00:53.344Z,8.63
2023-04-04T04:03:19.722Z,8.65
2023-04-04T04:05:46.027Z,8.67
2023-04-04T04:08:12.345Z,8.70
2023-04-04T04:10:38.893Z,8.72
2023-04-04T04:13:05.061Z,8.75
2023-04-04T04:15:31.486Z,8.79
2023-04-04T04:17:57.820Z,8.82
2023-04-04T04:20:24.124Z,8.85
2023-04-04T04:22:52.577Z,8.82
2023-04-04T04:25:16.815Z,8.82
2023-04-04T04:27:43.132Z,8.79
2023-04-04T04:30:09.525Z,8.73
2023-04-04T04:32:35.950Z,8.71
2023-04-04T04:35:02.264Z,8.72
2023-04-04T04:37:28.627Z,8.72
2023-04-04T04:39:54.988Z,8.68
2023-04-04T04:42:21.323Z,8.70
2023-04-04T04:44:47.664Z,8.72
2023-04-04T04:47:14.018Z,8.71
2023-04-04T04:49:40.389Z,8.74
2023-04-04T04:52:06.703Z,8.73
2023-04-04T04:54:33.055Z,8.77
2023-04-04T04:56:59.482Z,8.82
2023-04-04T04:59:25.940Z,8.92
2023-04-04T05:01:52.256Z,8.94
2023-04-04T05:04:18.612Z,8.91
2023-04-04T05:06:44.999Z,8.93
2023-04-04T05:09:11.372Z,8.98
2023-04-04T05:11:37.710Z,9.06
2023-04-04T05:14:04.089Z,9.13
2023-04-04T05:16:30.412Z,9.10
2023-04-04T05:18:56.946Z,9.10
2023-04-04T05:21:23.327Z,9.02
2023-04-04T05:23:49.704Z,9.08
2023-04-04T05:26:16.054Z,9.08
2023-04-04T05:28:42.463Z,9.16
2023-04-04T05:31:08.877Z,9.17
2023-04-04T05:33:35.233Z,9.10
2023-04-04T05:36:01.637Z,9.05
2023-04-04T05:38:27.989Z,9.05
2023-04-04T05:40:54.331Z,9.06
2023-04-04T05:43:20.681Z,9.06
2023-04-04T05:45:47.108Z,9.14
2023-04-04T05:48:13.464Z,9.09
2023-04-04T05:50:39.946Z,9.07
2023-04-04T05:53:06.230Z,9.05
2023-04-04T05:55:32.588Z,9.13
2023-04-04T05:57:58.929Z,9.17
2023-04-04T06:00:25.287Z,9.18
2023-04-04T06:02:51.848Z,9.15
2023-04-04T06:05:18.070Z,9.09
2023-04-04T06:07:44.481Z,9.14
2023-04-04T06:10:10.864Z,9.14
2023-04-04T06:12:37.216Z,9.22
2023-04-04T06:15:03.864Z,9.32
2023-04-04T06:17:30.252Z,9.40
2023-04-04T06:19:56.550Z,9.48
2023-04-04T06:22:22.906Z,9.54
2023-04-04T06:24:49.331Z,9.42
2023-04-04T06:27:15.670Z,9.34
2023-04-04T06:29:42.058Z,9.37
2023-04-04T06:32:08.396Z,9.37
2023-04-04T06:34:34.707Z,9.42
2023-04-04T06:37:01.108Z,9.35
2023-04-04T06:39:27.411Z,8.77
2023-04-04T06:41:53.800Z,7.91
2023-04-04T06:44:20.170Z,7.21
2023-04-04T06:46:46.772Z,6.93
2023-04-04T06:49:13.049Z,6.88
2023-04-04T06:51:39.410Z,6.77
2023-04-04T06:54:05.772Z,6.59
2023-04-04T06:56:32.188Z,6.55
2023-04-04T06:58:58.662Z,6.24
2023-04-04T07:01:25.004Z,5.91
2023-04-04T07:03:51.370Z,5.84
2023-04-04T07:06:17.751Z,5.72
2023-04-04T07:08:44.130Z,5.70
2023-04-04T07:11:10.537Z,5.70
2023-04-04T07:13:36.877Z,5.58
2023-04-04T07:16:03.352Z,5.56
2023-04-04T07:18:29.924Z,5.43
2023-04-04T07:20:56.265Z,5.38
2023-04-04T07:23:22.627Z,5.26
2023-04-04T07:25:49.029Z,5.31
2023-04-04T07:28:15.381Z,5.29
2023-04-04T07:30:43.922Z,5.41
2023-04-04T07:33:10.855Z,5.34
2023-04-04T07:35:36.974Z,5.36
2023-04-04T07:38:03.278Z,5.43
2023-04-04T07:40:29.646Z,5.43
2023-04-04T07:42:56.000Z,5.48
2023-04-04T07:45:22.350Z,5.43
2023-04-04T07:47:48.845Z,5.48
2023-04-04T07:50:15.173Z,5.49
2023-04-04T07:52:41.729Z,5.42
2023-04-04T07:55:08.074Z,5.42
2023-04-04T07:57:34.557Z,5.46
2023-04-04T08:00:00.997Z,5.40
2023-04-04T08:02:27.417Z,5.33
2023-04-04T08:04:53.715Z,5.39
2023-04-04T08:07:20.093Z,5.36
2023-04-04T08:09:46.462Z,5.26
2023-04-04T08:12:12.818Z,5.15
2023-04-04T08:14:39.157Z,5.19
2023-04-04T08:17:05.477Z,5.30
2023-04-04T08:19:32.001Z,5.30
2023-04-04T08:21:58.311Z,5.29
2023-04-04T08:24:25.921Z,5.26
2023-04-04T08:27:01.795Z,5.24
2023-04-04T08:29:17.359Z,5.28
2023-04-04T08:31:43.969Z,5.26
2023-04-04T08:34:10.273Z,5.34
2023-04-04T08:36:36.598Z,5.45
2023-04-04T08:39:03.014Z,5.51
2023-04-04T08:41:29.452Z,5.45
2023-04-04T08:43:55.830Z,5.52
2023-04-04T08:46:22.394Z,5.45
2023-04-04T08:48:48.722Z,5.44
2023-04-04T08:51:15.081Z,5.37
2023-04-04T08:53:41.499Z,5.30
2023-04-04T08:56:07.871Z,5.22
2023-04-04T08:58:34.501Z,5.26
2023-04-04T09:01:00.651Z,5.46
2023-04-04T09:03:27.112Z,5.66
2023-04-04T09:05:53.382Z,5.69
2023-04-04T09:08:19.741Z,5.60
2023-04-04T09:10:46.090Z,5.53
2023-04-04T09:13:16.287Z,5.56
2023-04-04T09:15:38.813Z,5.53
2023-04-04T09:18:05.187Z,5.51
2023-04-04T09:20:31.505Z,5.32
2023-04-04T09:22:57.868Z,5.12
2023-04-04T09:25:24.248Z,5.10
2023-04-04T09:27:50.610Z,5.19
2023-04-04T09:30:17.205Z,5.18
2023-04-04T09:32:43.548Z,5.29
2023-04-04T09:35:09.911Z,5.48
2023-04-04T09:37:36.314Z,5.48
2023-04-04T09:40:05.109Z,5.59
2023-04-04T09:42:31.253Z,5.72
2023-04-04T09:44:57.669Z,5.53
2023-04-04T09:47:30.435Z,5.57
2023-04-04T09:49:50.371Z,5.45
2023-04-04T09:52:16.718Z,5.41
2023-04-04T09:54:48.354Z,5.38
2023-04-04T09:57:09.492Z,5.53
2023-04-04T09:59:35.924Z,5.60
2023-04-04T10:02:02.265Z,5.75
2023-04-04T10:04:28.680Z,5.95
2023-04-04T10:06:55.943Z,6.13
2023-04-04T10:09:22.317Z,6.35
2023-04-04T10:11:48.777Z,6.36
2023-04-04T10:14:15.172Z,6.36
2023-04-04T10:16:41.540Z,6.32
2023-04-04T10:19:08.063Z,6.27
2023-04-04T10:21:34.206Z,6.32
2023-04-04T10:24:00.564Z,6.16
2023-04-04T10:26:26.975Z,5.82
2023-04-04T10:28:53.354Z,5.89
2023-04-04T10:31:19.799Z,6.01
2023-04-04T10:33:46.079Z,5.89
2023-04-04T10:36:12.496Z,5.98
2023-04-04T10:38:38.811Z,5.87
2023-04-04T10:41:05.178Z,5.92
2023-04-04T10:43:31.570Z,5.91
2023-04-04T10:45:57.979Z,5.89
2023-04-04T10:48:24.306Z,5.91
2023-04-04T10:50:50.650Z,5.95
2023-04-04T10:53:17.014Z,5.90
2023-04-04T10:55:43.562Z,5.92
2023-04-04T10:58:10.046Z,5.95
2023-04-04T11:00:36.311Z,5.95
2023-04-04T11:03:02.791Z,5.97
2023-04-04T11:05:28.974Z,5.85
2023-04-04T11:08:07.531Z,5.81
2023-04-04T11:10:21.751Z,5.87
2023-04-04T11:12:48.114Z,5.86
2023-04-04T11:15:14.539Z,5.73
2023-04-04T11:17:40.890Z,5.73
2023-04-04T11:20:07.321Z,5.81
2023-04-04T11:22:33.640Z,5.84
2023-04-04T11:25:00.044Z,5.70
2023-04-04T11:27:26.424Z,5.69
2023-04-04T11:29:52.780Z,5.64
2023-04-04T11:32:19.206Z,5.58
2023-04-04T11:34:47.648Z,5.53
2023-04-04T11:37:13.963Z,5.54
2023-04-04T11:39:40.342Z,5.51
2023-04-04T11:42:06.654Z,5.49
2023-04-04T11:44:33.001Z,5.50
2023-04-04T11:46:59.361Z,5.46
2023-04-04T11:49:25.787Z,5.34
2023-04-04T11:51:52.096Z,5.32
2023-04-04T11:54:18.446Z,5.31
2023-04-04T11:56:44.915Z,5.21
2023-04-04T11:59:12.079Z,5.22
2023-04-04T12:01:38.003Z,5.24
2023-04-04T12:04:04.683Z,5.28
2023-04-04T12:06:31.010Z,5.30
2023-04-04T12:08:57.403Z,5.21
2023-04-04T12:11:23.754Z,5.12
2023-04-04T12:13:50.209Z,5.11
2023-04-04T12:16:16.577Z,5.05
2023-04-04T12:18:42.963Z,5.13
2023-04-04T12:21:09.396Z,5.22
2023-04-04T12:23:35.729Z,5.22
2023-04-04T12:26:02.260Z,4.97
2023-04-04T12:28:28.640Z,4.94
2023-04-04T12:30:55.001Z,5.00
2023-04-04T12:33:21.431Z,5.05
2023-04-04T12:35:47.807Z,5.07
2023-04-04T12:38:14.155Z,5.12
2023-04-04T12:40:40.511Z,5.07
2023-04-04T12:43:06.865Z,5.00
2023-04-04T12:45:33.214Z,4.78
2023-04-04T12:47:59.790Z,4.77
2023-04-04T12:50:27.064Z,4.79
2023-04-04T12:52:55.486Z,4.69
2023-04-04T12:55:19.812Z,4.61
2023-04-04T12:57:46.198Z,4.67
2023-04-04T13:00:12.503Z,4.71
2023-04-04T13:02:39.101Z,4.66
2023-04-04T13:05:05.211Z,4.65
2023-04-04T13:07:31.655Z,4.74
2023-04-04T13:09:57.954Z,4.75
2023-04-04T13:12:24.339Z,4.54
2023-04-04T13:14:50.732Z,4.54
2023-04-04T13:17:17.108Z,4.62
2023-04-04T13:19:43.555Z,4.73
2023-04-04T13:22:09.949Z,4.68
2023-04-04T13:24:36.256Z,4.51
2023-04-04T13:27:02.706Z,4.49
2023-04-04T13:29:29.039Z,4.48
2023-04-04T13:31:55.465Z,4.40
2023-04-04T13:34:22.007Z,4.41
2023-04-04T13:36:48.365Z,4.38
2023-04-04T13:39:14.698Z,4.33
2023-04-04T13:41:41.063Z,4.32
2023-04-04T13:44:07.432Z,4.40
2023-04-04T13:46:33.859Z,4.41
2023-04-04T13:49:00.429Z,4.33
2023-04-04T13:51:26.805Z,4.25
2023-04-04T13:53:53.144Z,4.14
2023-04-04T13:56:19.729Z,4.06
2023-04-04T13:58:45.890Z,4.06
2023-04-04T14:01:12.190Z,3.99
2023-04-04T14:03:38.571Z,3.99
2023-04-04T14:06:10.229Z,3.98
2023-04-04T14:08:32.135Z,3.98
2023-04-04T14:10:57.745Z,3.96
2023-04-04T14:13:24.137Z,3.90
2023-04-04T14:15:50.518Z,3.94
2023-04-04T14:18:16.830Z,3.94
2023-04-04T14:20:43.309Z,3.92
2023-04-04T14:23:09.689Z,3.91
2023-04-04T14:25:36.090Z,3.76
2023-04-04T14:28:02.456Z,3.64
2023-04-04T14:30:28.872Z,3.60
2023-04-04T14:32:55.251Z,3.67
2023-04-04T14:35:21.537Z,3.67
2023-04-04T14:37:47.987Z,3.58
2023-04-04T14:40:14.420Z,3.51
2023-04-04T14:42:40.743Z,3.51
2023-04-04T14:45:07.108Z,3.53
2023-04-04T14:47:33.698Z,3.64
2023-04-04T14:50:00.035Z,3.64
2023-04-04T14:52:26.369Z,3.64
2023-04-04T14:54:52.853Z,3.66
2023-04-04T14:57:19.148Z,3.71
2023-04-04T14:59:45.615Z,3.68
2023-04-04T15:02:11.963Z,3.54
2023-04-04T15:04:38.334Z,3.49
2023-04-04T15:07:04.664Z,3.51
2023-04-04T15:09:31.084Z,3.59
2023-04-04T15:11:57.471Z,3.66
2023-04-04T15:14:23.790Z,3.69
2023-04-04T15:16:50.210Z,3.71
2023-04-04T15:19:16.481Z,3.59
2023-04-04T15:21:42.897Z,3.58
2023-04-04T15:24:09.240Z,3.60
2023-04-04T15:26:37.821Z,3.61
2023-04-04T15:29:04.172Z,3.62
2023-04-04T15:31:30.658Z,3.57
2023-04-04T15:33:56.881Z,3.51
2023-04-04T15:36:23.278Z,3.50
2023-04-04T15:38:49.809Z,3.44
2023-04-04T15:41:16.278Z,3.42
2023-04-04T15:43:42.575Z,3.46
2023-04-04T15:46:08.942Z,3.41
2023-04-04T15:48:35.606Z,3.43
2023-04-04T15:51:02.216Z,3.40
2023-04-04T15:53:28.517Z,3.39
2023-04-04T15:55:55.160Z,3.39
2023-04-04T15:58:21.473Z,3.47
2023-04-04T16:00:47.857Z,3.45
2023-04-04T16:03:14.559Z,3.39
2023-04-04T16:05:40.777Z,3.41
2023-04-04T16:08:07.135Z,3.36
2023-04-04T16:10:33.510Z,3.38
2023-04-04T16:12:59.930Z,3.31
2023-04-04T16:15:26.272Z,3.23
2023-04-04T16:17:52.779Z,3.27
2023-04-04T16:20:19.077Z,3.30
2023-04-04T16:22:45.429Z,3.24
2023-04-04T16:25:11.766Z,3.29
2023-04-04T16:27:38.263Z,3.22
2023-04-04T16:30:04.638Z,3.22
2023-04-04T16:32:31.029Z,3.15
2023-04-04T16:34:57.461Z,3.14
2023-04-04T16:37:23.805Z,3.12
2023-04-04T16:39:50.177Z,3.03
2023-04-04T16:42:16.545Z,3.01
2023-04-04T16:44:42.877Z,2.94
2023-04-04T16:47:11.004Z,2.94
2023-04-04T16:49:35.855Z,2.88
2023-04-04T16:52:02.225Z,2.81
2023-04-04T16:54:28.655Z,2.80
2023-04-04T16:56:55.125Z,2.76
2023-04-04T16:59:21.521Z,2.71
2023-04-04T17:01:48.299Z,2.70
2023-04-04T17:04:14.698Z,2.59
2023-04-04T17:06:41.017Z,2.58
2023-04-04T17:09:07.477Z,2.50
2023-04-04T17:11:34.305Z,2.50
2023-04-04T17:14:00.686Z,2.47
2023-04-04T17:16:27.420Z,2.45
2023-04-04T17:18:53.840Z,2.44
2023-04-04T17:21:20.240Z,2.40
2023-04-04T17:23:46.869Z,2.43
2023-04-04T17:26:13.185Z,2.37
2023-04-04T17:28:39.570Z,2.33
2023-04-04T17:31:06.099Z,2.24
2023-04-04T17:33:32.500Z,2.27
2023-04-04T17:35:58.838Z,2.26
2023-04-04T17:38:25.215Z,2.32
2023-04-04T17:40:51.668Z,2.23
2023-04-04T17:43:18.122Z,2.23
2023-04-04T17:45:44.520Z,2.27
2023-04-04T17:48:10.857Z,2.31
2023-04-04T17:50:37.472Z,2.21
2023-04-04T17:53:03.876Z,2.20
2023-04-04T17:55:30.448Z,2.20
2023-04-04T17:57:56.948Z,2.24
2023-04-04T18:00:23.352Z,2.17
2023-04-04T18:02:49.886Z,2.17
2023-04-04T18:05:16.122Z,2.13
2023-04-04T18:07:43.599Z,2.09
2023-04-04T18:10:09.897Z,2.08
2023-04-04T18:12:36.329Z,2.09
2023-04-04T18:15:02.658Z,2.11
2023-04-04T18:17:29.313Z,2.05
2023-04-04T18:19:55.654Z,2.02
2023-04-04T18:22:22.033Z,2.05
2023-04-04T18:24:48.843Z,2.06
2023-04-04T18:27:14.817Z,2.05
2023-04-04T18:29:41.179Z,2.10
2023-04-04T18:32:07.562Z,2.09
2023-04-04T18:34:33.916Z,2.06
2023-04-04T18:37:00.251Z,1.98
2023-04-04T18:39:26.637Z,1.95
2023-04-04T18:41:53.016Z,1.97
2023-04-04T18:44:19.393Z,2.01
2023-04-04T18:46:45.851Z,2.06
2023-04-04T18:49:12.212Z,2.04
2023-04-04T18:51:38.666Z,1.97
2023-04-04T18:54:05.488Z,1.89
2023-04-04T18:56:31.820Z,1.97
2023-04-04T18:58:58.218Z,1.96
2023-04-04T19:01:24.652Z,1.93
2023-04-04T19:03:50.950Z,1.93
2023-04-04T19:06:17.298Z,1.94
2023-04-04T19:08:43.813Z,1.93
2023-04-04T19:11:10.333Z,1.93
2023-04-04T19:13:37.714Z,1.98
2023-04-04T19:16:04.275Z,2.02
2023-04-04T19:18:30.673Z,1.95
2023-04-04T19:20:57.198Z,1.89
2023-04-04T19:23:23.559Z,1.91
2023-04-04T19:25:49.938Z,1.96
2023-04-04T19:28:16.300Z,1.97
2023-04-04T19:30:42.762Z,1.91
2023-04-04T19:33:09.156Z,1.96
2023-04-04T19:35:37.775Z,1.96
2023-04-04T19:38:04.227Z,1.96
2023-04-04T19:40:30.628Z,1.93
2023-04-04T19:42:57.052Z,1.89
2023-04-04T19:45:23.602Z,1.95
2023-04-04T19:47:50.041Z,1.97
2023-04-04T19:50:16.775Z,1.96
2023-04-04T19:52:43.123Z,1.96
2023-04-04T19:55:09.460Z,1.90
2023-04-04T19:57:35.851Z,1.88
2023-04-04T20:00:02.209Z,1.89
2023-04-04T20:02:28.764Z,1.91
2023-04-04T20:04:55.191Z,1.90
2023-04-04T20:07:21.488Z,1.88
2023-04-04T20:09:47.979Z,1.85
2023-04-04T20:12:14.301Z,1.81
2023-04-04T20:14:40.697Z,1.82
2023-04-04T20:17:07.210Z,1.80
2023-04-04T20:19:33.559Z,1.85
2023-04-04T20:21:59.871Z,1.84
2023-04-04T20:24:26.269Z,1.83
2023-04-04T20:26:52.591Z,1.74
2023-04-04T20:29:18.913Z,1.80
2023-04-04T20:31:45.316Z,1.84
2023-04-04T20:34:11.645Z,1.88
2023-04-04T20:36:38.028Z,1.83
2023-04-04T20:39:04.384Z,1.81
2023-04-04T20:41:30.726Z,1.87
2023-04-04T20:43:57.112Z,1.84
2023-04-04T20:46:23.417Z,1.83
2023-04-04T20:48:49.760Z,1.85
2023-04-04T20:51:16.157Z,1.84
2023-04-04T20:53:42.491Z,1.81
2023-04-04T20:56:08.844Z,1.71
2023-04-04T20:58:35.249Z,1.71
2023-04-04T21:01:01.620Z,1.76
2023-04-04T21:03:27.963Z,1.81
2023-04-04T21:05:54.573Z,1.85
2023-04-04T21:08:20.914Z,1.81
2023-04-04T21:10:47.272Z,1.77
2023-04-04T21:13:13.720Z,1.79
2023-04-04T21:15:40.064Z,1.79
2023-04-04T21:18:06.470Z,1.76
2023-04-04T21:20:32.681Z,1.74
2023-04-04T21:22:59.067Z,1.74
2023-04-04T21:25:25.413Z,1.66
2023-04-04T21:27:51.793Z,1.63
2023-04-04T21:30:18.121Z,1.67
2023-04-04T21:32:44.527Z,1.71
2023-04-04T21:35:10.902Z,1.77
2023-04-04T21:37:37.207Z,1.74
2023-04-04T21:40:03.560Z,1.77
2023-04-04T21:42:29.928Z,1.78
2023-04-04T21:44:56.284Z,1.81
2023-04-04T21:47:22.619Z,1.80
2023-04-04T21:49:48.973Z,1.83
2023-04-04T21:52:15.317Z,1.82
2023-04-04T21:54:41.623Z,1.81
2023-04-04T21:57:08.053Z,1.73
2023-04-04T21:59:34.395Z,1.69
2023-04-04T22:02:00.731Z,1.73
2023-04-04T22:04:27.105Z,1.70
2023-04-04T22:06:53.375Z,1.71
2023-04-04T22:09:19.729Z,1.70
2023-04-04T22:11:46.114Z,1.70
2023-04-04T22:14:12.482Z,1.60
2023-04-04T22:16:39.676Z,1.63
2023-04-04T22:19:05.310Z,1.58
2023-04-04T22:21:31.662Z,1.64
2023-04-04T22:23:57.970Z,1.64
2023-04-04T22:26:24.410Z,1.65
2023-04-04T22:28:50.779Z,1.66
2023-04-04T22:31:17.154Z,1.64
2023-04-04T22:33:43.448Z,1.62
2023-04-04T22:36:09.855Z,1.62
2023-04-04T22:38:36.192Z,1.51
2023-04-04T22:41:02.583Z,1.49
2023-04-04T22:43:28.924Z,1.54
2023-04-04T22:45:55.411Z,1.52
2023-04-04T22:48:21.684Z,1.56
2023-04-04T22:50:48.054Z,1.58
2023-04-04T22:53:14.365Z,1.57
2023-04-04T22:55:40.736Z,1.52
2023-04-04T22:58:07.091Z,1.46
2023-04-04T23:00:33.467Z,1.45
2023-04-04T23:02:59.867Z,1.47
2023-04-04T23:05:26.156Z,1.51
2023-04-04T23:07:52.474Z,1.54
2023-04-04T23:10:18.810Z,1.57
2023-04-04T23:12:45.134Z,1.54
2023-04-04T23:15:11.520Z,1.49
2023-04-04T23:17:37.910Z,1.50
2023-04-04T23:20:04.201Z,1.52
2023-04-04T23:22:30.514Z,1.50
2023-04-04T23:24:56.890Z,1.43
2023-04-04T23:27:23.261Z,1.42
2023-04-04T23:29:49.598Z,1.46
2023-04-04T23:32:15.902Z,1.46
2023-04-04T23:34:42.296Z,1.37
2023-04-04T23:37:08.611Z,1.35
2023-04-04T23:39:34.988Z,1.38
2023-04-04T23:42:01.297Z,1.38
2023-04-04T23:44:27.686Z,1.42
2023-04-04T23:46:54.181Z,1.41
2023-04-04T23:49:20.387Z,1.39
2023-04-04T23:51:46.782Z,1.38
2023-04-04T23:54:13.140Z,1.41
2023-04-04T23:56:39.447Z,1.43
2023-04-04T23:59:05.831Z,1.42
